createdAt,value
2022-12-05T00:01:43.184Z,4.07
2022-12-05T00:04:12.717Z,4.08
2022-12-05T00:06:41.437Z,4.10
2022-12-05T00:09:10.552Z,4.11
2022-12-05T00:11:39.757Z,4.12
2022-12-05T00:14:08.855Z,4.13
2022-12-05T00:16:38.579Z,4.15
2022-12-05T00:19:07.893Z,4.15
2022-12-05T00:21:36.711Z,4.16
2022-12-05T00:24:07.549Z,4.17
2022-12-05T00:26:35.637Z,4.19
2022-12-05T00:29:02.984Z,4.18
2022-12-05T00:31:30.688Z,4.20
2022-12-05T00:34:01.390Z,4.21
2022-12-05T00:36:31.378Z,4.24
2022-12-05T00:39:03.832Z,4.27
2022-12-05T00:41:31.131Z,4.30
2022-12-05T00:44:00.520Z,4.33
2022-12-05T00:46:30.061Z,4.35
2022-12-05T00:48:59.807Z,4.38
2022-12-05T00:51:33.046Z,4.41
2022-12-05T00:54:05.897Z,4.43
2022-12-05T00:56:33.308Z,4.44
2022-12-05T00:59:01.834Z,4.47
2022-12-05T01:01:33.739Z,4.49
2022-12-05T01:04:07.801Z,4.52
2022-12-05T01:06:35.250Z,4.53
2022-12-05T01:09:04.245Z,4.55
2022-12-05T01:11:35.072Z,4.57
2022-12-05T01:14:05.686Z,4.58
2022-12-05T01:16:37.413Z,4.58
2022-12-05T01:19:14.023Z,4.60
2022-12-05T01:21:42.037Z,4.61
2022-12-05T01:24:11.197Z,4.62
2022-12-05T01:26:38.667Z,4.62
2022-12-05T01:29:06.193Z,4.63
2022-12-05T01:31:36.471Z,4.64
2022-12-05T01:34:08.036Z,4.64
2022-12-05T01:36:35.921Z,4.64
2022-12-05T01:39:03.902Z,4.64
2022-12-05T01:41:34.570Z,4.62
2022-12-05T01:44:12.793Z,4.62
2022-12-05T01:46:48.649Z,4.61
2022-12-05T01:49:18.159Z,4.59
2022-12-05T01:51:48.976Z,4.57
2022-12-05T01:54:17.012Z,4.57
2022-12-05T01:56:48.782Z,4.55
2022-12-05T01:59:18.228Z,4.54
2022-12-05T02:01:45.762Z,4.54
2022-12-05T02:04:13.644Z,4.53
2022-12-05T02:06:41.369Z,4.52
2022-12-05T02:09:08.651Z,4.51
2022-12-05T02:11:52.043Z,4.51
2022-12-05T02:14:56.137Z,4.50
2022-12-05T02:18:07.360Z,4.50
2022-12-05T02:20:49.631Z,4.51
2022-12-05T02:23:49.480Z,4.51
2022-12-05T02:26:33.438Z,4.51
2022-12-05T02:29:19.445Z,4.52
2022-12-05T02:32:30.930Z,4.52
2022-12-05T02:35:08.795Z,4.48
2022-12-05T02:37:59.932Z,4.48
2022-12-05T02:40:54.766Z,4.49
2022-12-05T02:44:08.274Z,4.48
2022-12-05T02:46:39.182Z,4.48
2022-12-05T02:49:11.864Z,4.48
2022-12-05T02:51:45.628Z,4.48
2022-12-05T02:54:17.814Z,4.48
2022-12-05T02:56:47.278Z,4.49
2022-12-05T02:59:19.868Z,4.50
2022-12-05T03:01:51.048Z,4.48
2022-12-05T03:04:21.333Z,4.48
2022-12-05T03:06:59.142Z,4.50
2022-12-05T03:09:35.795Z,4.51
2022-12-05T03:12:16.267Z,4.48
2022-12-05T03:14:58.619Z,4.48
2022-12-05T03:17:35.293Z,4.46
2022-12-05T03:20:32.278Z,4.45
2022-12-05T03:23:15.736Z,4.44
2022-12-05T03:26:12.164Z,4.44
2022-12-05T03:28:59.783Z,4.43
2022-12-05T03:31:42.370Z,4.42
2022-12-05T03:34:15.814Z,4.42
2022-12-05T03:36:49.102Z,4.41
2022-12-05T03:39:29.594Z,4.41
2022-12-05T03:42:09.473Z,4.40
2022-12-05T03:44:59.734Z,4.40
2022-12-05T03:47:33.107Z,4.39
2022-12-05T03:50:06.541Z,4.39
2022-12-05T03:53:11.428Z,4.39
2022-12-05T03:55:36.823Z,4.39
2022-12-05T03:58:37.326Z,4.40
2022-12-05T04:01:07.598Z,4.38
2022-12-05T04:03:42.364Z,4.39
2022-12-05T04:06:16.692Z,4.39
2022-12-05T04:09:10.068Z,4.40
2022-12-05T04:11:46.954Z,4.41
2022-12-05T04:14:19.442Z,4.42
2022-12-05T04:17:05.631Z,4.43
2022-12-05T04:20:12.044Z,4.43
2022-12-05T04:22:40.419Z,4.44
2022-12-05T04:25:30.975Z,4.44
2022-12-05T04:28:28.826Z,4.45
2022-12-05T04:31:14.491Z,4.45
2022-12-05T04:34:07.422Z,4.44
2022-12-05T04:37:00.026Z,4.45
2022-12-05T04:39:37.612Z,4.45
2022-12-05T04:42:10.046Z,4.44
2022-12-05T04:44:43.682Z,4.43
2022-12-05T04:47:15.048Z,4.44
2022-12-05T04:49:46.949Z,4.43
2022-12-05T04:52:18.149Z,4.43
2022-12-05T04:54:54.816Z,4.44
2022-12-05T04:57:31.385Z,4.43
2022-12-05T04:59:59.123Z,4.42
2022-12-05T05:02:38.019Z,4.43
2022-12-05T05:05:13.943Z,4.43
2022-12-05T05:07:50.368Z,4.43
2022-12-05T05:10:27.058Z,4.42
2022-12-05T05:12:54.639Z,4.42
2022-12-05T05:15:22.149Z,4.42
2022-12-05T05:17:49.377Z,4.42
2022-12-05T05:20:26.794Z,4.41
2022-12-05T05:22:56.913Z,4.41
2022-12-05T05:25:25.914Z,4.41
2022-12-05T05:27:55.778Z,4.39
2022-12-05T05:30:24.649Z,4.40
2022-12-05T05:32:52.429Z,4.41
2022-12-05T05:35:20.490Z,4.41
2022-12-05T05:37:48.016Z,4.42
2022-12-05T05:40:15.392Z,4.41
2022-12-05T05:42:49.091Z,4.42
2022-12-05T05:45:16.974Z,4.41
2022-12-05T05:47:44.711Z,4.42
2022-12-05T05:50:17.794Z,4.43
2022-12-05T05:52:50.450Z,4.43
2022-12-05T05:55:17.825Z,4.44
2022-12-05T05:57:45.804Z,4.43
2022-12-05T06:00:13.817Z,4.43
2022-12-05T06:02:41.542Z,4.42
2022-12-05T06:05:09.809Z,4.43
2022-12-05T06:07:37.209Z,4.43
2022-12-05T06:10:05.009Z,4.42
2022-12-05T06:12:32.721Z,4.44
2022-12-05T06:15:00.041Z,4.42
2022-12-05T06:17:27.281Z,4.43
2022-12-05T06:19:56.037Z,4.44
2022-12-05T06:22:23.559Z,4.44
2022-12-05T06:24:50.900Z,4.44
2022-12-05T06:27:18.369Z,4.44
2022-12-05T06:29:45.562Z,4.45
2022-12-05T06:32:12.963Z,4.44
2022-12-05T06:34:40.512Z,4.43
2022-12-05T06:37:08.093Z,4.42
2022-12-05T06:39:35.516Z,4.42
2022-12-05T06:42:02.798Z,4.43
2022-12-05T06:44:30.180Z,4.42
2022-12-05T06:46:57.640Z,4.41
2022-12-05T06:49:36.381Z,4.42
2022-12-05T06:52:08.381Z,4.41
2022-12-05T06:54:36.187Z,4.41
2022-12-05T06:57:03.518Z,4.41
2022-12-05T06:59:30.752Z,4.43
2022-12-05T07:01:57.968Z,4.43
2022-12-05T07:04:25.422Z,4.44
2022-12-05T07:06:54.916Z,4.44
2022-12-05T07:09:44.472Z,4.45
2022-12-05T07:12:17.598Z,4.46
2022-12-05T07:14:49.020Z,4.46
2022-12-05T07:17:20.812Z,4.47
2022-12-05T07:19:52.436Z,4.47
2022-12-05T07:22:21.682Z,4.48
2022-12-05T07:24:51.515Z,4.48
2022-12-05T07:27:25.075Z,4.50
2022-12-05T07:29:54.388Z,4.51
2022-12-05T07:32:21.959Z,4.50
2022-12-05T07:34:54.903Z,4.50
2022-12-05T07:37:22.660Z,4.51
2022-12-05T07:39:50.811Z,4.51
2022-12-05T07:42:18.175Z,4.52
2022-12-05T07:44:47.400Z,4.52
2022-12-05T07:47:14.714Z,4.52
2022-12-05T07:49:41.997Z,4.53
2022-12-05T07:52:10.006Z,4.51
2022-12-05T07:54:40.309Z,4.52
2022-12-05T07:57:07.646Z,4.51
2022-12-05T07:59:34.863Z,4.52
2022-12-05T08:02:04.175Z,4.52
2022-12-05T08:04:31.518Z,4.52
2022-12-05T08:06:58.786Z,4.53
2022-12-05T08:09:26.363Z,4.53
2022-12-05T08:11:53.651Z,4.52
2022-12-05T08:14:20.985Z,4.52
2022-12-05T08:16:48.599Z,4.54
2022-12-05T08:19:17.221Z,4.55
2022-12-05T08:21:44.735Z,4.54
2022-12-05T08:24:12.492Z,4.53
2022-12-05T08:26:40.118Z,4.55
2022-12-05T08:29:10.419Z,4.55
2022-12-05T08:31:44.930Z,4.53
2022-12-05T08:34:14.266Z,4.53
2022-12-05T08:36:41.863Z,4.54
2022-12-05T08:39:14.989Z,4.54
2022-12-05T08:41:43.949Z,4.55
2022-12-05T08:44:16.445Z,4.55
2022-12-05T08:46:46.670Z,4.56
2022-12-05T08:49:14.514Z,4.58
2022-12-05T08:51:42.829Z,4.58
2022-12-05T08:54:10.391Z,4.58
2022-12-05T08:56:39.079Z,4.59
2022-12-05T08:59:07.065Z,4.60
2022-12-05T09:01:38.665Z,4.60
2022-12-05T09:04:07.733Z,4.62
2022-12-05T09:06:35.764Z,4.62
2022-12-05T09:09:08.773Z,4.62
2022-12-05T09:11:41.052Z,4.63
2022-12-05T09:14:08.526Z,4.63
2022-12-05T09:16:39.923Z,4.64
2022-12-05T09:19:27.773Z,4.64
2022-12-05T09:21:55.841Z,4.63
2022-12-05T09:24:23.410Z,4.63
2022-12-05T09:26:50.962Z,4.64
2022-12-05T09:29:18.419Z,4.64
2022-12-05T09:31:48.867Z,4.63
2022-12-05T09:34:18.215Z,4.64
2022-12-05T09:36:51.345Z,4.63
2022-12-05T09:39:18.895Z,4.62
2022-12-05T09:42:10.786Z,4.61
2022-12-05T09:44:59.449Z,4.60
2022-12-05T09:47:42.842Z,4.59
2022-12-05T09:50:21.890Z,4.59
2022-12-05T09:53:00.910Z,4.58
2022-12-05T09:55:54.470Z,4.59
2022-12-05T09:58:27.783Z,4.58
2022-12-05T10:01:03.906Z,4.58
2022-12-05T10:03:40.484Z,4.56
2022-12-05T10:06:24.787Z,4.55
2022-12-05T10:09:28.762Z,4.56
2022-12-05T10:12:17.175Z,4.55
2022-12-05T10:15:12.162Z,4.57
2022-12-05T10:17:43.129Z,4.57
2022-12-05T10:20:27.273Z,4.58
2022-12-05T10:23:02.463Z,4.58
2022-12-05T10:25:33.454Z,4.57
2022-12-05T10:28:08.029Z,4.56
2022-12-05T10:30:37.057Z,4.55
2022-12-05T10:33:15.003Z,4.55
2022-12-05T10:35:43.345Z,4.58
2022-12-05T10:38:28.461Z,4.58
2022-12-05T10:41:01.289Z,4.60
2022-12-05T10:43:32.173Z,4.61
2022-12-05T10:46:00.665Z,4.62
2022-12-05T10:48:31.466Z,4.61
2022-12-05T10:50:59.967Z,4.62
2022-12-05T10:53:39.468Z,4.62
2022-12-05T10:56:36.142Z,4.61
2022-12-05T10:59:04.109Z,4.62
2022-12-05T11:01:31.801Z,4.62
2022-12-05T11:04:01.880Z,4.63
2022-12-05T11:06:31.811Z,4.65
2022-12-05T11:09:06.086Z,4.63
2022-12-05T11:11:34.610Z,4.62
2022-12-05T11:14:27.009Z,4.61
2022-12-05T11:16:57.572Z,4.61
2022-12-05T11:19:36.710Z,4.61
2022-12-05T11:22:05.691Z,4.60
2022-12-05T11:24:35.462Z,4.59
2022-12-05T11:27:18.245Z,4.60
2022-12-05T11:30:01.869Z,4.60
2022-12-05T11:32:33.887Z,4.61
2022-12-05T11:35:13.651Z,4.62
2022-12-05T11:37:50.051Z,4.61
2022-12-05T11:40:30.124Z,4.62
2022-12-05T11:43:12.873Z,4.62
2022-12-05T11:45:40.106Z,4.61
2022-12-05T11:48:27.572Z,4.60
2022-12-05T11:50:57.753Z,4.59
2022-12-05T11:53:56.023Z,4.59
2022-12-05T11:56:52.982Z,4.60
2022-12-05T11:59:42.364Z,4.60
2022-12-05T12:02:24.649Z,4.59
2022-12-05T12:05:00.769Z,4.59
2022-12-05T12:07:39.807Z,4.58
2022-12-05T12:10:28.408Z,4.60
2022-12-05T12:13:19.753Z,4.61
2022-12-05T12:16:17.115Z,4.62
2022-12-05T12:19:07.036Z,4.60
2022-12-05T12:21:47.484Z,4.60
2022-12-05T12:24:40.905Z,4.61
2022-12-05T12:27:20.387Z,4.61
2022-12-05T12:29:54.071Z,4.62
2022-12-05T12:32:45.813Z,4.63
2022-12-05T12:35:27.486Z,4.64
2022-12-05T12:38:22.727Z,4.64
2022-12-05T12:40:53.778Z,4.65
2022-12-05T12:43:53.703Z,4.66
2022-12-05T12:46:33.901Z,4.66
2022-12-05T12:49:16.266Z,4.66
2022-12-05T12:51:54.087Z,4.67
2022-12-05T12:54:55.183Z,4.67
2022-12-05T12:57:23.643Z,4.68
2022-12-05T13:00:32.911Z,4.69
2022-12-05T13:03:09.883Z,4.67
2022-12-05T13:05:43.917Z,4.67
2022-12-05T13:08:36.286Z,4.68
2022-12-05T13:11:08.967Z,4.67
2022-12-05T13:13:45.261Z,4.68
2022-12-05T13:16:24.045Z,4.68
2022-12-05T13:18:51.581Z,4.71
2022-12-05T13:21:20.333Z,4.72
2022-12-05T13:23:51.275Z,4.73
2022-12-05T13:26:18.985Z,4.72
2022-12-05T13:29:00.220Z,4.73
2022-12-05T13:31:45.958Z,4.72
2022-12-05T13:34:33.933Z,4.73
2022-12-05T13:37:29.809Z,4.73
2022-12-05T13:40:18.134Z,4.72
2022-12-05T13:42:46.446Z,4.72
2022-12-05T13:45:20.485Z,4.72
2022-12-05T13:47:59.846Z,4.70
2022-12-05T13:50:47.147Z,4.72
2022-12-05T13:53:29.379Z,4.72
2022-12-05T13:56:14.921Z,4.72
2022-12-05T13:58:54.282Z,4.72
2022-12-05T14:01:28.115Z,4.71
2022-12-05T14:03:58.821Z,4.72
2022-12-05T14:06:35.376Z,4.71
2022-12-05T14:09:03.879Z,4.70
2022-12-05T14:11:31.213Z,4.71
2022-12-05T14:14:04.247Z,4.70
2022-12-05T14:16:32.313Z,4.70
2022-12-05T14:19:28.680Z,4.71
2022-12-05T14:22:43.352Z,4.69
2022-12-05T14:25:36.920Z,4.67
2022-12-05T14:28:19.335Z,4.66
2022-12-05T14:31:21.390Z,4.64
2022-12-05T14:34:19.127Z,4.64
2022-12-05T14:37:03.469Z,4.64
2022-12-05T14:39:47.171Z,4.63
2022-12-05T14:42:47.660Z,4.63
2022-12-05T14:45:28.644Z,4.61
2022-12-05T14:47:58.797Z,4.60
2022-12-05T14:50:32.079Z,4.60
2022-12-05T14:53:20.727Z,4.61
2022-12-05T14:55:53.805Z,4.62
2022-12-05T14:58:33.477Z,4.60
2022-12-05T15:01:06.239Z,4.58
2022-12-05T15:03:40.806Z,4.59
2022-12-05T15:06:15.964Z,4.58
2022-12-05T15:08:49.983Z,4.58
2022-12-05T15:11:28.592Z,4.58
2022-12-05T15:14:17.560Z,4.56
2022-12-05T15:16:46.898Z,4.57
2022-12-05T15:19:30.071Z,4.57
2022-12-05T15:22:01.597Z,4.56
2022-12-05T15:24:38.351Z,4.57
2022-12-05T15:27:11.672Z,4.56
2022-12-05T15:29:40.542Z,4.55
2022-12-05T15:32:11.003Z,4.55
2022-12-05T15:34:47.696Z,4.56
2022-12-05T15:37:25.826Z,4.56
2022-12-05T15:40:23.605Z,4.54
2022-12-05T15:42:53.596Z,4.54
2022-12-05T15:45:44.054Z,4.55
2022-12-05T15:48:14.519Z,4.55
2022-12-05T15:50:47.865Z,4.56
2022-12-05T15:53:37.490Z,4.58
2022-12-05T15:56:09.446Z,4.57
2022-12-05T15:58:50.915Z,4.57
2022-12-05T16:01:26.238Z,4.57
2022-12-05T16:04:02.748Z,4.58
2022-12-05T16:06:36.984Z,4.58
2022-12-05T16:09:13.399Z,4.59
2022-12-05T16:11:51.443Z,4.58
2022-12-05T16:14:51.020Z,4.59
2022-12-05T16:17:14.544Z,4.60
2022-12-05T16:19:41.870Z,4.60
2022-12-05T16:22:11.790Z,4.58
2022-12-05T16:24:54.601Z,4.59
2022-12-05T16:27:24.764Z,4.57
2022-12-05T16:30:12.564Z,4.58
2022-12-05T16:32:41.993Z,4.57
2022-12-05T16:35:27.689Z,4.57
2022-12-05T16:38:13.055Z,4.55
2022-12-05T16:41:08.665Z,4.54
2022-12-05T16:43:35.824Z,4.53
2022-12-05T16:46:15.240Z,4.52
2022-12-05T16:48:44.618Z,4.53
2022-12-05T16:51:17.034Z,4.53
2022-12-05T16:53:55.038Z,4.53
2022-12-05T16:56:24.252Z,4.51
2022-12-05T16:58:51.837Z,4.52
2022-12-05T17:01:22.001Z,4.52
2022-12-05T17:03:49.536Z,4.52
2022-12-05T17:06:18.468Z,4.52
2022-12-05T17:08:45.667Z,4.52
2022-12-05T17:11:34.090Z,4.53
2022-12-05T17:14:02.614Z,4.51
2022-12-05T17:16:30.383Z,4.50
2022-12-05T17:18:57.704Z,4.50
2022-12-05T17:21:29.693Z,4.50
2022-12-05T17:23:56.949Z,4.50
2022-12-05T17:26:24.639Z,4.51
2022-12-05T17:28:52.161Z,4.52
2022-12-05T17:31:21.752Z,4.49
2022-12-05T17:33:50.697Z,4.50
2022-12-05T17:36:17.928Z,4.49
2022-12-05T17:38:45.799Z,4.51
2022-12-05T17:41:23.778Z,4.51
2022-12-05T17:43:51.686Z,4.48
2022-12-05T17:46:22.724Z,4.50
2022-12-05T17:48:51.313Z,4.51
2022-12-05T17:51:20.128Z,4.50
2022-12-05T17:53:47.820Z,4.51
2022-12-05T17:56:15.792Z,4.49
2022-12-05T17:58:43.194Z,4.51
2022-12-05T18:01:16.640Z,4.52
2022-12-05T18:03:44.178Z,4.51
2022-12-05T18:06:11.543Z,4.53
2022-12-05T18:08:44.949Z,4.54
2022-12-05T18:11:14.590Z,4.54
2022-12-05T18:13:42.068Z,4.54
2022-12-05T18:16:09.395Z,4.55
2022-12-05T18:18:36.778Z,4.57
2022-12-05T18:21:07.550Z,4.57
2022-12-05T18:23:35.084Z,4.57
2022-12-05T18:26:02.540Z,4.56
2022-12-05T18:28:29.981Z,4.56
2022-12-05T18:31:12.297Z,4.56
2022-12-05T18:33:39.896Z,4.56
2022-12-05T18:36:09.974Z,4.58
2022-12-05T18:38:38.629Z,4.58
2022-12-05T18:41:07.053Z,4.58
2022-12-05T18:43:35.026Z,4.59
2022-12-05T18:46:04.673Z,4.59
2022-12-05T18:48:43.659Z,4.59
2022-12-05T18:51:20.774Z,4.59
2022-12-05T18:53:54.842Z,4.59
2022-12-05T18:56:30.593Z,4.59
2022-12-05T18:59:04.716Z,4.60
2022-12-05T19:01:34.074Z,4.59
2022-12-05T19:04:03.599Z,4.59
2022-12-05T19:06:33.005Z,4.57
2022-12-05T19:09:03.423Z,4.59
2022-12-05T19:11:31.088Z,4.61
2022-12-05T19:14:00.599Z,4.62
2022-12-05T19:16:29.696Z,4.61
2022-12-05T19:18:59.811Z,4.62
2022-12-05T19:21:29.278Z,4.62
2022-12-05T19:23:57.544Z,4.62
2022-12-05T19:26:26.059Z,4.61
2022-12-05T19:28:53.473Z,4.60
2022-12-05T19:31:23.065Z,4.61
2022-12-05T19:33:53.329Z,4.61
2022-12-05T19:36:22.275Z,4.61
2022-12-05T19:38:51.625Z,4.62
2022-12-05T19:41:23.625Z,4.62
2022-12-05T19:43:51.142Z,4.62
2022-12-05T19:46:25.013Z,4.61
2022-12-05T19:48:53.381Z,4.61
2022-12-05T19:51:20.928Z,4.62
2022-12-05T19:53:49.665Z,4.63
2022-12-05T19:56:23.071Z,4.62
2022-12-05T19:58:52.120Z,4.62
2022-12-05T20:01:32.975Z,4.61
2022-12-05T20:04:09.602Z,4.60
2022-12-05T20:06:40.361Z,4.59
2022-12-05T20:09:08.687Z,4.58
2022-12-05T20:11:38.996Z,4.58
2022-12-05T20:14:06.764Z,4.58
2022-12-05T20:16:34.235Z,4.58
2022-12-05T20:19:01.639Z,4.57
2022-12-05T20:21:31.788Z,4.57
2022-12-05T20:24:00.914Z,4.57
2022-12-05T20:26:30.758Z,4.58
2022-12-05T20:29:00.682Z,4.57
2022-12-05T20:31:30.340Z,4.57
2022-12-05T20:33:57.715Z,4.57
2022-12-05T20:36:27.498Z,4.56
2022-12-05T20:39:05.002Z,4.56
2022-12-05T20:41:33.298Z,4.57
2022-12-05T20:44:04.203Z,4.57
2022-12-05T20:46:35.156Z,4.56
2022-12-05T20:49:02.550Z,4.56
2022-12-05T20:51:33.565Z,4.57
2022-12-05T20:54:03.194Z,4.57
2022-12-05T20:56:32.422Z,4.56
2022-12-05T20:59:02.405Z,4.55
2022-12-05T21:01:31.679Z,4.54
2022-12-05T21:03:59.587Z,4.53
2022-12-05T21:06:30.206Z,4.55
2022-12-05T21:08:59.586Z,4.54
2022-12-05T21:11:28.646Z,4.55
2022-12-05T21:14:00.185Z,4.55
2022-12-05T21:16:28.393Z,4.55
2022-12-05T21:18:56.393Z,4.55
2022-12-05T21:21:25.788Z,4.56
2022-12-05T21:24:01.869Z,4.57
2022-12-05T21:26:31.873Z,4.56
2022-12-05T21:29:00.845Z,4.56
2022-12-05T21:31:31.098Z,4.56
2022-12-05T21:34:01.051Z,4.57
2022-12-05T21:36:30.115Z,4.57
2022-12-05T21:38:57.778Z,4.57
2022-12-05T21:41:26.090Z,4.58
2022-12-05T21:43:56.210Z,4.59
2022-12-05T21:46:26.960Z,4.59
2022-12-05T21:48:54.543Z,4.58
2022-12-05T21:51:22.984Z,4.58
2022-12-05T21:53:51.326Z,4.59
2022-12-05T21:56:22.882Z,4.60
2022-12-05T21:58:51.465Z,4.61
2022-12-05T22:01:33.093Z,4.60
2022-12-05T22:04:01.005Z,4.60
2022-12-05T22:06:33.741Z,4.60
2022-12-05T22:09:02.268Z,4.61
2022-12-05T22:11:35.767Z,4.61
2022-12-05T22:14:03.345Z,4.61
2022-12-05T22:16:32.880Z,4.62
2022-12-05T22:19:02.135Z,4.63
2022-12-05T22:21:33.936Z,4.62
2022-12-05T22:24:01.559Z,4.63
2022-12-05T22:26:29.058Z,4.63
2022-12-05T22:28:56.942Z,4.64
2022-12-05T22:31:26.003Z,4.62
2022-12-05T22:33:53.324Z,4.63
2022-12-05T22:36:20.809Z,4.64
2022-12-05T22:38:48.337Z,4.64
2022-12-05T22:41:19.407Z,4.64
2022-12-05T22:43:48.725Z,4.66
2022-12-05T22:46:18.862Z,4.66
2022-12-05T22:48:48.347Z,4.66
2022-12-05T22:51:17.267Z,4.67
2022-12-05T22:53:45.539Z,4.67
2022-12-05T22:56:15.775Z,4.67
2022-12-05T22:58:44.202Z,4.67
2022-12-05T23:01:17.356Z,4.67
2022-12-05T23:03:46.617Z,4.67
2022-12-05T23:06:16.155Z,4.67
2022-12-05T23:08:45.774Z,4.67
2022-12-05T23:11:13.565Z,4.67
2022-12-05T23:13:40.902Z,4.66
2022-12-05T23:16:14.210Z,4.66
2022-12-05T23:18:48.278Z,4.64
2022-12-05T23:21:21.848Z,4.63
2022-12-05T23:23:51.761Z,4.62
2022-12-05T23:26:21.374Z,4.62
2022-12-05T23:28:48.968Z,4.61
2022-12-05T23:31:16.831Z,4.60
2022-12-05T23:33:44.295Z,4.60
2022-12-05T23:36:12.885Z,4.58
2022-12-05T23:38:42.523Z,4.57
2022-12-05T23:41:21.503Z,4.56
2022-12-05T23:43:51.163Z,4.56
2022-12-05T23:46:21.439Z,4.56
2022-12-05T23:48:49.171Z,4.56
2022-12-05T23:51:19.813Z,4.56
2022-12-05T23:53:51.328Z,4.57
2022-12-05T23:56:22.157Z,4.57
2022-12-05T23:58:49.347Z,4.56
